Alpine, Utah
Current Conditions -  °F | °C
As of 12:59 PM on Monday 24 Nov 2014 (Local Time) from KPVU Reporting Station
Scattered Clouds Scattered Clouds  
Wind Chill: 30°   Ceiling: Unl
Heat Index: 39°   Visibility: 10mi
Dew Point: 25°   Wind: 17mph
Humidity: 56%   Direction: 300°WNW
Pressure: 30.35"   Gusts: NA
Location:  40.45°N, 111.78°W
Report Text: KPVU 241959Z 30015KT 10SM SCT065 04/M04 A3035
Loading
Personal Weather Stations






























Interactive Weather Map New forecast layout! Learn more

10-Day Weather Forecast

Advertisements
Track Severe Weather on mobile